createdAt,value
2023-01-19T14:20:39.127Z,16.96
2023-01-19T14:23:42.723Z,16.57
2023-01-19T14:26:41.206Z,16.30
2023-01-19T14:29:12.748Z,16.08
2023-01-19T14:31:49.498Z,15.97
2023-01-19T15:39:16.928Z,13.14
2023-01-19T15:41:46.660Z,13.08
2023-01-19T15:44:16.775Z,13.06
2023-01-19T15:46:46.701Z,13.06
2023-01-19T15:49:19.789Z,13.03
2023-01-19T15:51:49.577Z,13.03
2023-01-19T15:54:19.180Z,13.02
2023-01-19T15:56:53.024Z,13.00
2023-01-19T15:59:24.318Z,12.96
2023-01-19T16:01:54.022Z,12.93
2023-01-19T16:04:23.484Z,12.95
2023-01-19T16:06:52.752Z,12.96
2023-01-19T16:09:23.270Z,12.97
2023-01-19T16:11:57.495Z,12.97
2023-01-19T16:14:26.290Z,12.94
2023-01-19T16:16:55.215Z,12.87
2023-01-19T16:19:27.100Z,12.83
2023-01-19T16:21:56.765Z,12.83
2023-01-19T16:24:27.301Z,12.83
2023-01-19T16:26:56.777Z,12.79
2023-01-19T16:29:25.612Z,12.75
2023-01-19T16:31:56.997Z,12.76
2023-01-19T16:34:27.963Z,12.78
2023-01-19T16:37:03.775Z,12.75
2023-01-19T16:39:33.412Z,12.71
2023-01-19T16:42:02.502Z,12.68
2023-01-19T16:44:35.441Z,12.62
2023-01-19T16:47:07.458Z,12.56
2023-01-19T16:49:39.105Z,12.52
2023-01-19T16:52:08.122Z,12.51
2023-01-19T16:54:40.984Z,12.52
2023-01-19T16:57:18.586Z,12.51
2023-01-19T16:59:51.754Z,12.49
2023-01-19T17:02:20.867Z,12.47
2023-01-19T17:04:49.757Z,12.47
2023-01-19T17:07:25.113Z,12.44
2023-01-19T17:09:55.418Z,12.46
2023-01-19T17:12:32.238Z,12.47
2023-01-19T17:15:01.908Z,12.47
2023-01-19T17:17:32.594Z,12.43
2023-01-19T17:20:13.271Z,12.42
2023-01-19T17:22:45.807Z,12.41
2023-01-19T17:25:14.813Z,12.40
2023-01-19T17:27:45.274Z,12.38
2023-01-19T17:30:20.911Z,12.36
2023-01-19T17:32:51.946Z,12.37
2023-01-19T17:35:21.471Z,12.36
2023-01-19T17:37:54.775Z,12.33
2023-01-19T17:40:27.088Z,12.31
2023-01-19T17:42:55.550Z,12.30
2023-01-19T17:45:26.791Z,12.28
2023-01-19T17:47:55.994Z,12.26
2023-01-19T17:50:24.582Z,12.24
2023-01-19T17:52:58.826Z,12.21
2023-01-19T17:55:35.926Z,12.20
2023-01-19T17:58:07.621Z,12.19
2023-01-19T18:00:36.741Z,12.16
2023-01-19T18:03:11.447Z,12.11
2023-01-19T18:05:56.932Z,12.04
2023-01-19T18:08:30.102Z,11.99
2023-01-19T18:11:03.050Z,11.95
2023-01-19T18:13:36.960Z,11.95
2023-01-19T18:16:08.832Z,12.01
2023-01-19T18:18:40.021Z,12.08
2023-01-19T18:21:11.761Z,12.16
2023-01-19T18:23:43.614Z,12.30
2023-01-19T18:26:19.638Z,12.42
2023-01-19T18:28:55.169Z,12.53
2023-01-19T18:31:25.703Z,12.65
2023-01-19T18:33:55.173Z,12.77
2023-01-19T18:36:24.970Z,12.85
2023-01-19T18:38:53.975Z,12.90
2023-01-19T18:41:22.578Z,12.93
2023-01-19T18:44:01.147Z,12.96
2023-01-19T18:46:31.574Z,12.97
2023-01-19T18:49:05.123Z,12.91
2023-01-19T18:51:34.189Z,12.84
2023-01-19T18:54:03.254Z,12.81
2023-01-19T18:56:33.640Z,12.79
2023-01-19T18:59:05.508Z,12.76
2023-01-19T19:01:37.527Z,12.72
2023-01-19T19:04:14.462Z,12.70
2023-01-19T19:06:49.896Z,12.65
2023-01-19T19:09:21.112Z,12.63
2023-01-19T19:11:49.914Z,12.60
2023-01-19T19:14:22.908Z,12.56
2023-01-19T19:16:54.460Z,12.56
2023-01-19T19:19:28.919Z,12.58
2023-01-19T19:22:00.898Z,12.61
2023-01-19T19:24:31.549Z,12.59
2023-01-19T19:27:00.135Z,12.55
2023-01-19T19:29:29.489Z,12.49
2023-01-19T19:31:58.343Z,12.44
2023-01-19T19:34:32.672Z,12.38
2023-01-19T19:37:02.263Z,12.30
2023-01-19T19:39:31.764Z,12.24
2023-01-19T19:42:02.824Z,12.21
2023-01-19T19:44:32.034Z,12.19
2023-01-19T19:47:01.812Z,12.19
2023-01-19T19:49:32.330Z,12.17
2023-01-19T19:52:02.056Z,12.16
2023-01-19T19:54:32.080Z,12.12
2023-01-19T19:57:03.083Z,12.09
2023-01-19T19:59:33.783Z,12.07
2023-01-19T20:02:06.458Z,12.06
2023-01-19T20:04:38.609Z,12.10
2023-01-19T20:07:11.001Z,12.20
2023-01-19T20:09:40.568Z,12.34
2023-01-19T20:12:12.289Z,12.43
2023-01-19T20:14:43.719Z,12.52
2023-01-19T20:17:14.429Z,12.57
2023-01-19T20:19:49.605Z,12.62
2023-01-19T20:22:20.767Z,12.69
2023-01-19T20:24:52.443Z,12.82
2023-01-19T20:27:22.770Z,12.93
2023-01-19T20:29:59.663Z,12.96
2023-01-19T20:32:30.404Z,12.97
2023-01-19T20:34:59.495Z,12.96
2023-01-19T20:37:29.476Z,12.94
2023-01-19T20:39:59.097Z,12.93
2023-01-19T20:42:29.508Z,12.90
2023-01-19T20:45:04.437Z,12.84
2023-01-19T20:47:40.001Z,12.70
2023-01-19T20:50:10.951Z,12.56
2023-01-19T20:52:40.273Z,12.51
2023-01-19T20:55:13.970Z,12.48
2023-01-19T20:57:43.539Z,12.42
2023-01-19T21:00:17.731Z,12.35
2023-01-19T21:02:49.104Z,12.30
2023-01-19T21:08:58.338Z,12.16
2023-01-19T21:11:28.568Z,12.03
2023-01-19T21:13:57.158Z,11.96
2023-01-19T21:16:29.302Z,11.92
2023-01-19T21:18:59.893Z,11.88
2023-01-19T21:21:31.976Z,11.85
2023-01-19T21:24:04.845Z,11.81
2023-01-19T21:26:37.011Z,11.77
2023-01-19T21:29:12.127Z,11.72
2023-01-19T21:31:41.599Z,11.65
2023-01-19T21:34:12.037Z,11.59
2023-01-19T21:36:40.830Z,11.53
2023-01-19T21:39:10.251Z,11.48
2023-01-19T21:41:40.563Z,11.41
2023-01-19T21:44:13.641Z,11.35
2023-01-19T21:46:43.776Z,11.29
2023-01-19T21:49:19.183Z,11.23
2023-01-19T21:51:52.921Z,11.12
2023-01-19T21:54:21.699Z,10.94
2023-01-19T21:56:50.629Z,10.82
2023-01-19T21:59:20.521Z,10.75
2023-01-19T22:01:54.602Z,10.68
2023-01-19T22:07:53.655Z,10.46
2023-01-19T22:10:22.221Z,10.31
2023-01-19T22:12:50.923Z,10.22
2023-01-19T22:15:20.294Z,10.12
2023-01-19T22:17:48.995Z,10.01
2023-01-19T22:20:17.684Z,9.92
2023-01-19T22:22:46.196Z,9.87
2023-01-19T22:25:15.305Z,9.81
2023-01-19T22:27:44.195Z,9.74
2023-01-19T22:30:13.029Z,9.63
2023-01-19T22:32:41.511Z,9.54
2023-01-19T22:35:10.300Z,9.45
2023-01-19T22:37:38.808Z,9.34
2023-01-19T22:40:12.349Z,9.26
2023-01-19T22:42:45.778Z,9.21
2023-01-19T22:45:15.612Z,9.19
2023-01-19T22:47:46.451Z,9.13
2023-01-19T22:50:15.635Z,9.07
2023-01-19T22:52:44.213Z,9.06
2023-01-19T22:55:13.054Z,9.08
2023-01-19T22:57:41.787Z,9.09
2023-01-19T23:00:11.397Z,9.11
2023-01-19T23:02:39.706Z,9.07
2023-01-19T23:05:08.041Z,8.98
2023-01-19T23:07:36.626Z,8.85
2023-01-19T23:10:05.738Z,8.73
2023-01-19T23:12:33.995Z,8.64
2023-01-19T23:15:02.398Z,8.60
2023-01-19T23:17:30.976Z,8.57
2023-01-19T23:19:59.644Z,8.52
2023-01-19T23:22:28.433Z,8.50
2023-01-19T23:24:56.725Z,8.49
2023-01-19T23:27:25.193Z,8.44
2023-01-19T23:29:53.685Z,8.40
2023-01-19T23:32:23.591Z,8.38
2023-01-19T23:34:51.860Z,8.35
2023-01-19T23:37:20.855Z,8.29
2023-01-19T23:39:49.296Z,8.25
2023-01-19T23:42:18.231Z,8.19
2023-01-19T23:44:47.647Z,8.17
2023-01-19T23:47:16.122Z,8.14
2023-01-19T23:49:46.127Z,8.13
2023-01-19T23:52:15.171Z,8.09
2023-01-19T23:54:44.949Z,8.02
2023-01-19T23:57:14.026Z,7.97
2023-01-19T23:59:42.610Z,7.91
